Strona główna
METAR-TAF:

METAR-TAF

Lotnisko :

Santiago, Chile

Szerokość geograficzna: 33-27-23S, Długość geograficzna: 070-32-48W, wysokość: 646 m

Aktualna obserwacja pogody

Raport powstał 11 minut temu, godzina 15:00 UTC
Wiatr 4 kt od wschód
Temperatura 6°C
Wilgotność 93%
Ciśnienie 1016 hPa
Widzialność: 4000 m
Zachmurzenie całkowite na wysokości 6000 ft
silny deszcz,

METAR: SCTB 211500Z 10004KT 4000 +RA OVC060 06/05 Q1016

czas: 11:11 (15:11 UTC)


TAF: brakujący

Obserwacja i prognoza pogody dla ponad 4000 lotnisk (raport METAR i TAF).

Dostępne stacje oznaczono żółtymi i czerwonymi punktami na mapie.

Najedź kursorem aby zobaczyć nazwę stacji.

Kliknij aby zobaczyć obserwacje i prognozy pogody.

Aby zmienić mapę: kliknij na zielony przycisk z czarnym krzyżykiem, aby powiększyć; na zielony przycisk z myślnikiem, aby pomniejszyć; na zielone strzałki, aby przejść do map sąsiednich.


METAR-TAF: